Time;durP1;ratioP1;P1;durP2;ratioP2;P2;SDS_P1;SDS_P2;PMS_P1;PMS_P2;Temp;Humidity;BMP_temperature;BMP_pressure;BME280_temperature;BME280_humidity;BME280_pressure;Samples;Min_cycle;Max_cycle;Signal;HPM_P1;HPM_P2
2023/04/11 09:11:53;;;;;;;9.07;2.15;;;;;;;27.85;27.51;99135.66;7387554;19;20015;-84
2023/04/11 09:14:24;;;;;;;9.70;0.50;;;;;;;27.69;27.76;99136.06;7389051;19;20018;-84
2023/04/11 09:16:59;;;;;;;0.20;0.20;;;;;;;27.85;28.37;99130.69;7386470;19;20018;-84
2023/04/11 09:19:30;;;;;;;0.47;0.47;;;;;;;28.04;28.09;99136.28;7390991;19;20047;-85
2023/04/11 09:22:03;;;;;;;0.55;0.52;;;;;;;28.14;28.07;99139.03;7393573;19;20118;-85
2023/04/11 09:24:29;;;;;;;0.20;0.20;;;;;;;28.32;27.68;99126.69;7391980;19;20056;-88
2023/04/11 09:27:11;;;;;;;1.33;0.35;;;;;;;28.50;27.92;99135.72;7390461;19;20022;-89
2023/04/11 09:29:44;;;;;;;0.57;0.32;;;;;;;28.51;27.52;99126.50;7394758;19;20025;-90
2023/04/11 09:32:34;;;;;;;0.63;0.52;;;;;;;28.57;28.22;99116.78;7392644;19;20022;-90
2023/04/11 09:35:22;;;;;;;0.43;0.43;;;;;;;28.60;27.98;99106.97;7393330;19;20504;-90
2023/04/11 09:37:54;;;;;;;1.05;0.30;;;;;;;28.54;27.79;99113.78;7393978;19;20030;-89
2023/04/11 09:40:24;;;;;;;0.63;0.60;;;;;;;28.58;27.89;99112.56;7392817;19;20018;-89
2023/04/11 09:42:59;;;;;;;16.05;1.60;;;;;;;28.66;28.14;99119.56;7394289;19;20472;-90
2023/04/11 09:45:26;;;;;;;4.82;0.98;;;;;;;28.74;28.32;99116.47;7394660;19;20019;-91
2023/04/11 09:47:54;;;;;;;0.80;0.38;;;;;;;28.81;28.13;99118.34;7392646;19;20031;-90
2023/04/11 09:50:22;;;;;;;4.47;0.55;;;;;;;28.81;27.92;99109.75;7391850;19;20022;-90
2023/04/11 09:52:48;;;;;;;5.03;1.38;;;;;;;28.89;27.69;99116.72;7396982;19;20024;-91
2023/04/11 09:55:18;;;;;;;2.17;0.85;;;;;;;28.96;27.93;99123.59;7392651;19;20022;-90
2023/04/11 09:57:46;;;;;;;2.45;0.55;;;;;;;28.79;27.69;99118.22;7394345;19;20016;-90
2023/04/11 10:00:24;;;;;;;3.22;0.65;;;;;;;28.76;27.41;99108.00;7397642;19;20018;-90
2023/04/11 10:02:52;;;;;;;5.22;1.20;;;;;;;28.85;27.68;99107.13;7394672;19;20022;-91
2023/04/11 10:05:19;;;;;;;0.80;0.80;;;;;;;29.07;27.24;99094.19;7392563;19;20027;-81
2023/04/11 10:07:47;;;;;;;2.17;0.30;;;;;;;29.39;27.37;99087.56;7394504;19;20390;-84
2023/04/11 10:10:19;;;;;;;0.55;0.52;;;;;;;29.87;27.68;99081.13;7395808;19;20018;-85
2023/04/11 10:12:46;;;;;;;10.10;2.22;;;;;;;30.09;27.10;99075.91;7394198;19;20044;-88
2023/04/11 10:15:13;;;;;;;2.80;0.70;;;;;;;30.16;27.15;99072.03;7393740;19;20036;-93
2023/04/11 10:17:42;;;;;;;8.23;2.03;;;;;;;30.07;27.23;99067.19;7393123;19;20488;-88
2023/04/11 10:20:43;;;;;;;3.22;1.10;;;;;;;30.01;27.04;99069.72;7394979;19;20007;-91
2023/04/11 10:23:11;;;;;;;2.45;0.50;;;;;;;29.73;27.38;99060.19;7392772;19;20014;-94
2023/04/11 10:25:55;;;;;;;5.40;0.95;;;;;;;29.58;27.76;99050.00;7394552;19;20074;-88
2023/04/11 10:28:38;;;;;;;2.85;0.55;;;;;;;29.85;27.41;99041.56;7393692;19;20024;-93
2023/04/11 10:31:11;;;;;;;3.45;1.60;;;;;;;30.13;27.45;99038.81;7391179;19;20486;-92
2023/04/11 10:33:39;;;;;;;3.55;0.75;;;;;;;30.06;27.52;99022.63;7391180;19;20010;-92
2023/04/11 10:36:11;;;;;;;6.20;0.82;;;;;;;30.07;27.91;99029.84;7394541;19;20034;-92
2023/04/11 10:38:42;;;;;;;3.85;1.38;;;;;;;30.05;27.82;99026.88;7396544;19;20122;-92
2023/04/11 10:41:32;;;;;;;4.85;0.63;;;;;;;29.90;27.26;99023.19;7399831;19;20014;-91
2023/04/11 10:44:24;;;;;;;0.70;0.38;;;;;;;30.06;27.09;99016.88;7393692;19;20014;-89
2023/04/11 10:46:54;;;;;;;1.95;0.47;;;;;;;29.75;27.58;99005.78;7398616;19;20027;-85
2023/04/11 10:49:38;;;;;;;3.00;0.70;;;;;;;29.76;28.15;98996.53;7395460;19;20029;-83
2023/04/11 10:52:37;;;;;;;5.05;0.38;;;;;;;29.66;27.73;98992.31;7395168;19;20010;-82
2023/04/11 10:55:17;;;;;;;0.50;0.28;;;;;;;29.75;27.99;98977.09;7394780;19;20028;-83
2023/04/11 10:58:09;;;;;;;0.30;0.17;;;;;;;29.63;27.70;98977.09;7397430;19;20019;-83
2023/04/11 11:03:14;;;;;;;0.22;0.22;;;;;;;29.51;27.96;98979.28;7399562;19;20074;-94
2023/04/11 11:05:41;;;;;;;0.32;0.10;;;;;;;29.41;27.57;98967.19;7398817;19;20468;-93
2023/04/11 11:08:07;;;;;;;1.20;0.30;;;;;;;29.49;27.73;98961.94;7397864;19;20503;-95
2023/04/11 11:10:35;;;;;;;5.45;0.88;;;;;;;29.40;28.52;98954.22;7396599;19;20022;-94
2023/04/11 11:13:02;;;;;;;1.55;0.30;;;;;;;29.75;28.02;98954.13;7401938;19;20035;-96
2023/04/11 11:15:30;;;;;;;6.20;0.40;;;;;;;29.94;28.12;98939.41;7400574;19;20010;-95
2023/04/11 11:17:57;;;;;;;1.75;0.45;;;;;;;29.85;27.76;98943.94;7399434;19;20014;-96
2023/04/11 11:20:23;;;;;;;0.28;0.28;;;;;;;29.92;27.99;98928.56;7401961;19;20086;-93
2023/04/11 11:23:03;;;;;;;0.10;0.10;;;;;;;29.91;27.80;98944.28;7400132;19;20019;-94
2023/04/11 11:25:29;;;;;;;0.50;0.10;;;;;;;30.20;27.87;98928.63;7399969;19;20049;-94
2023/04/11 11:28:04;;;;;;;7.55;0.55;;;;;;;30.18;27.29;98917.00;7397871;19;20022;-96
2023/04/11 11:30:31;;;;;;;1.65;0.20;;;;;;;30.38;27.63;98912.41;7398357;19;20022;-96
2023/04/11 11:32:57;;;;;;;11.18;0.75;;;;;;;30.57;27.50;98921.34;7401066;19;20136;-96
2023/04/11 11:35:25;;;;;;;1.58;0.15;;;;;;;30.46;26.83;98907.06;7398135;19;20334;-93
2023/04/11 11:37:52;;;;;;;2.92;0.55;;;;;;;30.55;27.08;98909.00;7398624;19;20086;-88
2023/04/11 11:40:21;;;;;;;0.28;0.28;;;;;;;30.58;27.14;98893.34;7401612;19;20019;-86
2023/04/11 11:42:48;;;;;;;1.60;0.32;;;;;;;30.70;27.32;98899.72;7400633;19;20018;-96
2023/04/11 11:45:19;;;;;;;6.03;0.55;;;;;;;30.63;27.66;98889.28;7404103;19;20018;-89
2023/04/11 11:47:47;;;;;;;1.65;0.98;;;;;;;30.84;27.81;98880.31;7397762;19;20026;-96
2023/04/11 11:50:28;;;;;;;0.32;0.32;;;;;;;30.86;27.69;98871.06;7398362;19;20617;-90
2023/04/11 11:52:58;;;;;;;3.50;0.52;;;;;;;31.03;27.95;98862.66;7399019;19;20072;-84
2023/04/11 11:55:24;;;;;;;0.63;0.30;;;;;;;31.16;27.71;98852.50;7399501;19;20728;-84
2023/04/11 11:57:50;;;;;;;0.20;0.20;;;;;;;31.02;27.40;98858.28;7398641;19;20053;-84
2023/04/11 12:00:24;;;;;;;0.80;0.10;;;;;;;30.74;26.76;98853.94;7397490;19;20017;-85
2023/04/11 12:02:52;;;;;;;0.30;0.20;;;;;;;30.44;27.54;98855.25;7395675;19;20025;-84
2023/04/11 12:05:18;;;;;;;1.05;0.52;;;;;;;29.97;27.46;98855.59;7395093;19;20019;-87
2023/04/11 12:07:44;;;;;;;0.35;0.35;;;;;;;30.04;27.76;98844.47;7397191;19;20018;-88
2023/04/11 12:10:16;;;;;;;0.13;0.13;;;;;;;30.27;27.28;98841.38;7399874;19;20022;-89
2023/04/11 12:12:43;;;;;;;0.68;0.28;;;;;;;30.46;27.15;98835.97;7397592;19;20021;-86
2023/04/11 12:15:10;;;;;;;0.50;0.20;;;;;;;31.92;25.92;98829.53;7398650;19;20011;-87
2023/04/11 12:17:37;;;;;;;0.45;0.20;;;;;;;31.58;26.46;98822.91;7394860;19;20018;-89
2023/04/11 12:20:07;;;;;;;7.18;0.55;;;;;;;31.26;26.84;98822.06;7400242;19;20022;-87
2023/04/11 12:22:34;;;;;;;4.50;0.35;;;;;;;31.46;26.32;98818.72;7394333;19;20018;-88
2023/04/11 12:25:08;;;;;;;2.88;0.38;;;;;;;31.55;26.41;98818.47;7394393;19;20043;-88
2023/04/11 12:27:36;;;;;;;0.32;0.13;;;;;;;31.65;26.39;98809.53;7395249;19;20018;-90
2023/04/11 12:30:03;;;;;;;2.38;0.73;;;;;;;31.28;26.25;98802.03;7398705;19;20064;-88
2023/04/11 12:32:32;;;;;;;3.00;0.55;;;;;;;31.43;26.55;98798.47;7394812;19;20096;-93
2023/04/11 12:34:59;;;;;;;0.10;0.10;;;;;;;31.41;26.93;98797.63;7396337;19;20110;-89
2023/04/11 12:37:25;;;;;;;3.72;0.93;;;;;;;31.36;26.35;98796.66;7400391;19;20022;-91
2023/04/11 12:39:51;;;;;;;4.85;0.80;;;;;;;31.13;26.71;98778.97;7400756;19;20006;-91
2023/04/11 12:42:17;;;;;;;0.63;0.30;;;;;;;31.10;27.04;98777.41;7393183;19;20014;-88
2023/04/11 12:44:43;;;;;;;0.30;0.30;;;;;;;31.18;26.25;98781.41;7394249;19;20043;-88
2023/04/11 12:47:10;;;;;;;1.73;0.25;;;;;;;31.13;26.30;98773.22;7396692;19;20038;-88
2023/04/11 12:49:36;;;;;;;0.20;0.20;;;;;;;31.17;26.61;98779.91;7396503;19;20014;-88
2023/04/11 12:52:02;;;;;;;4.45;0.35;;;;;;;31.09;26.62;98761.53;7392270;19;20067;-87
2023/04/11 12:54:28;;;;;;;0.38;0.20;;;;;;;31.06;26.35;98763.53;7395360;19;20023;-88
2023/04/11 12:56:57;;;;;;;0.52;0.20;;;;;;;30.77;26.66;98749.16;7397680;19;20014;-87
2023/04/11 12:59:25;;;;;;;0.80;0.30;;;;;;;30.78;26.93;98744.88;7395852;19;20039;-91
2023/04/11 13:01:51;;;;;;;0.68;0.50;;;;;;;31.05;27.17;98739.06;7393171;19;20038;-86
2023/04/11 13:04:17;;;;;;;1.20;0.50;;;;;;;30.83;27.04;98729.31;7393566;19;20018;-87
2023/04/11 13:06:43;;;;;;;2.33;0.30;;;;;;;30.81;26.96;98717.72;7394572;19;20031;-85
2023/04/11 13:09:11;;;;;;;0.20;0.10;;;;;;;31.01;27.13;98721.63;7392101;19;20006;-87
2023/04/11 13:11:37;;;;;;;0.50;0.22;;;;;;;31.12;26.84;98709.19;7390364;19;20021;-93
2023/04/11 13:14:04;;;;;;;0.20;0.10;;;;;;;31.15;26.89;98707.16;7392219;19;20061;-86
2023/04/11 13:16:30;;;;;;;1.35;0.40;;;;;;;31.02;27.98;98700.06;7392536;19;20019;-86
2023/04/11 13:18:56;;;;;;;0.50;0.20;;;;;;;30.86;27.81;98687.81;7394056;19;20390;-87
2023/04/11 13:21:25;;;;;;;4.78;0.50;;;;;;;30.75;27.88;98682.94;7391936;19;20039;-85
2023/04/11 13:23:52;;;;;;;0.17;0.17;;;;;;;30.70;27.93;98684.13;7392534;19;20030;-85
2023/04/11 13:26:20;;;;;;;0.17;0.17;;;;;;;30.48;28.22;98655.03;7393398;19;20014;-86
2023/04/11 13:28:46;;;;;;;0.30;0.20;;;;;;;30.45;28.11;98667.09;7392626;19;20337;-86
2023/04/11 13:31:13;;;;;;;2.58;0.57;;;;;;;30.13;28.58;98659.66;7391538;19;20047;-86
2023/04/11 13:33:43;;;;;;;0.63;0.63;;;;;;;29.68;29.66;98656.63;7391889;19;20014;-87
2023/04/11 13:36:10;;;;;;;0.75;0.45;;;;;;;29.45;30.41;98669.06;7395137;19;20022;-86
2023/04/11 13:38:36;;;;;;;2.00;1.15;;;;;;;29.29;30.66;98662.44;7394062;19;20017;-86
2023/04/11 13:41:02;;;;;;;0.30;0.20;;;;;;;29.15;31.28;98664.53;7392695;19;20035;-87
2023/04/11 13:43:28;;;;;;;0.17;0.17;;;;;;;28.97;31.76;98652.03;7390387;19;20018;-87
2023/04/11 13:45:54;;;;;;;1.60;0.50;;;;;;;28.69;32.10;98639.00;7391801;19;20021;-88
2023/04/11 13:48:21;;;;;;;1.58;0.65;;;;;;;28.71;32.82;98639.13;7392573;19;20407;-87
2023/04/11 13:50:47;;;;;;;0.50;0.35;;;;;;;28.65;32.41;98633.81;7391917;19;20403;-87
2023/04/11 13:53:13;;;;;;;3.38;0.70;;;;;;;28.62;33.22;98632.19;7393061;19;20022;-88
2023/04/11 13:55:39;;;;;;;1.73;1.08;;;;;;;28.85;33.25;98625.56;7392571;19;20022;-88
2023/04/11 13:58:05;;;;;;;5.28;0.93;;;;;;;29.09;33.45;98619.03;7391622;19;20023;-88
2023/04/11 14:00:34;;;;;;;14.10;0.85;;;;;;;29.09;33.09;98612.56;7391033;19;20378;-86
2023/04/11 14:03:01;;;;;;;2.38;0.35;;;;;;;29.06;33.38;98596.63;7390633;19;20019;-88
2023/04/11 14:05:27;;;;;;;6.72;1.23;;;;;;;29.18;33.73;98591.56;7393045;19;20010;-84
2023/04/11 14:07:53;;;;;;;4.53;0.75;;;;;;;29.19;33.33;98581.59;7393846;19;20006;-84
2023/04/11 14:10:19;;;;;;;3.90;0.82;;;;;;;29.16;33.73;98568.53;7390276;19;20018;-84
2023/04/11 14:12:46;;;;;;;2.42;0.73;;;;;;;29.17;34.03;98559.28;7388636;19;20014;-85
2023/04/11 14:15:12;;;;;;;4.78;0.55;;;;;;;29.08;34.17;98550.88;7391745;19;20015;-86
2023/04/11 14:17:38;;;;;;;3.28;0.93;;;;;;;28.71;33.80;98538.81;7395580;19;20330;-86
2023/04/11 14:20:05;;;;;;;1.73;1.05;;;;;;;28.44;34.61;98537.34;7395955;19;20022;-87
2023/04/11 14:22:31;;;;;;;0.43;0.43;;;;;;;28.23;34.26;98542.59;7388667;19;20022;-85
2023/04/11 14:24:58;;;;;;;0.20;0.20;;;;;;;28.18;34.74;98533.00;7388483;19;20035;-85
2023/04/11 14:27:24;;;;;;;1.67;0.38;;;;;;;28.05;34.92;98530.09;7393313;19;20023;-82
2023/04/11 14:29:50;;;;;;;0.40;0.40;;;;;;;27.82;34.70;98525.19;7392423;19;20011;-86
2023/04/11 14:32:17;;;;;;;0.88;0.88;;;;;;;27.49;34.94;98525.41;7389171;19;20393;-85
2023/04/11 14:34:43;;;;;;;0.75;0.40;;;;;;;27.53;34.98;98516.31;7388848;19;20045;-85
2023/04/11 14:37:09;;;;;;;0.38;0.38;;;;;;;27.49;34.98;98513.22;7393789;19;20446;-85
2023/04/11 14:39:37;;;;;;;0.30;0.30;;;;;;;27.37;35.43;98495.38;7392507;19;20018;-85
2023/04/11 14:42:04;;;;;;;0.88;0.82;;;;;;;27.43;35.56;98479.31;7388794;19;20035;-83
2023/04/11 14:44:30;;;;;;;1.45;0.75;;;;;;;27.55;35.58;98473.53;7386627;19;20539;-83
2023/04/11 14:46:56;;;;;;;2.15;0.68;;;;;;;27.48;35.96;98474.56;7391392;19;20058;-86
2023/04/11 14:49:22;;;;;;;0.85;0.85;;;;;;;27.39;36.19;98459.06;7389451;19;20490;-89
2023/04/11 14:51:49;;;;;;;7.22;0.70;;;;;;;27.31;35.78;98449.97;7388246;19;20014;-86
2023/04/11 14:54:15;;;;;;;1.13;0.35;;;;;;;27.36;35.90;98439.53;7391266;19;20103;-85
2023/04/11 14:56:41;;;;;;;0.20;0.20;;;;;;;27.23;35.99;98425.88;7394116;19;20015;-92
2023/04/11 14:59:10;;;;;;;0.22;0.22;;;;;;;27.24;35.95;98430.22;7394710;19;20019;-82
2023/04/11 15:01:37;;;;;;;2.72;0.63;;;;;;;27.22;35.67;98419.44;7388607;19;20018;-81
2023/04/11 15:04:03;;;;;;;0.77;0.47;;;;;;;27.16;35.52;98409.75;7388009;19;20726;-83
2023/04/11 15:06:30;;;;;;;0.60;0.60;;;;;;;27.41;35.90;98399.13;7387833;19;20492;-84
2023/04/11 15:08:58;;;;;;;0.30;0.30;;;;;;;27.55;36.10;98393.44;7387852;19;20461;-80
2023/04/11 15:11:25;;;;;;;3.22;0.52;;;;;;;27.73;36.01;98385.91;7385463;19;20094;-81
2023/04/11 15:13:52;;;;;;;0.30;0.30;;;;;;;27.97;35.85;98370.09;7389434;19;20420;-80
2023/04/11 15:16:20;;;;;;;0.20;0.20;;;;;;;27.89;35.97;98363.91;7390107;19;20018;-85
2023/04/11 15:18:47;;;;;;;1.38;0.57;;;;;;;27.78;36.17;98359.75;7391370;19;20022;-82
2023/04/11 15:21:13;;;;;;;0.55;0.50;;;;;;;27.81;35.82;98349.13;7388060;19;20086;-82
2023/04/11 15:23:39;;;;;;;0.50;0.50;;;;;;;27.78;35.55;98341.84;7384708;19;20015;-83
2023/04/11 15:26:07;;;;;;;0.45;0.45;;;;;;;27.58;35.93;98332.13;7388722;19;20037;-80
2023/04/11 15:28:36;;;;;;;0.32;0.32;;;;;;;27.52;35.99;98328.94;7393281;19;20019;-80
2023/04/11 15:31:04;;;;;;;0.40;0.40;;;;;;;27.52;36.25;98312.53;7393803;19;20118;-83
2023/04/11 15:33:30;;;;;;;1.33;0.73;;;;;;;27.23;36.41;98294.38;7394482;19;20126;-82
2023/04/11 15:35:58;;;;;;;0.93;0.93;;;;;;;27.03;36.56;98282.53;7396565;19;20017;-85
2023/04/11 15:38:25;;;;;;;1.75;0.13;;;;;;;26.62;36.26;98276.56;7395031;19;20017;-86
2023/04/11 15:40:53;;;;;;;0.75;0.30;;;;;;;26.62;36.78;98273.72;7392842;19;20082;-83
2023/04/11 15:43:20;;;;;;;0.82;0.40;;;;;;;26.68;36.64;98267.63;7391659;19;20078;-82
2023/04/11 15:45:46;;;;;;;3.17;0.52;;;;;;;26.68;36.73;98254.06;7394526;19;20043;-85
2023/04/11 15:48:12;;;;;;;2.85;1.23;;;;;;;26.73;36.79;98240.81;7395225;19;20018;-86
2023/04/11 15:50:43;;;;;;;2.33;0.70;;;;;;;26.70;37.25;98236.34;7392339;19;20026;-83
2023/04/11 15:53:09;;;;;;;0.50;0.50;;;;;;;26.77;37.41;98221.03;7395709;19;20040;-86
2023/04/11 15:55:40;;;;;;;0.40;0.40;;;;;;;26.64;37.42;98208.16;7395314;19;20018;-87
2023/04/11 15:58:07;;;;;;;1.55;0.60;;;;;;;26.57;37.18;98197.03;7395312;19;20045;-82
2023/04/11 16:00:38;;;;;;;1.77;0.65;;;;;;;26.44;37.13;98184.16;7393793;19;20018;-82
2023/04/11 16:03:09;;;;;;;0.65;0.65;;;;;;;26.49;37.33;98174.44;7393786;19;20108;-84
2023/04/11 16:05:39;;;;;;;0.52;0.52;;;;;;;26.31;37.21;98176.25;7395075;19;20011;-83
2023/04/11 16:08:08;;;;;;;0.20;0.20;;;;;;;26.36;37.14;98160.84;7393053;19;20118;-84
2023/04/11 16:10:34;;;;;;;0.20;0.20;;;;;;;26.36;37.29;98157.25;7394421;19;20022;-86
2023/04/11 16:13:01;;;;;;;0.28;0.28;;;;;;;26.37;36.87;98138.75;7394284;19;20023;-86
2023/04/11 16:15:27;;;;;;;0.40;0.40;;;;;;;26.64;37.04;98133.16;7393453;19;20007;-84
2023/04/11 16:17:53;;;;;;;0.40;0.40;;;;;;;26.60;37.02;98122.25;7398137;19;20694;-86
2023/04/11 16:20:20;;;;;;;0.70;0.70;;;;;;;26.61;37.08;98125.84;7393564;19;20055;-90
2023/04/11 16:22:46;;;;;;;9.75;0.82;;;;;;;26.59;36.70;98103.66;7395107;19;20018;-91
2023/04/11 16:25:19;;;;;;;0.20;0.20;;;;;;;26.49;37.02;98111.63;7396917;19;20017;-90
2023/04/11 16:27:46;;;;;;;0.20;0.20;;;;;;;26.20;37.07;98097.13;7393183;19;20015;-82
2023/04/11 16:30:12;;;;;;;0.32;0.32;;;;;;;26.09;37.12;98086.50;7399219;19;20014;-87
2023/04/11 16:32:38;;;;;;;0.70;0.47;;;;;;;26.25;36.57;98061.72;7395344;19;20069;-86
2023/04/11 16:35:05;;;;;;;1.75;0.75;;;;;;;26.28;36.51;98060.47;7396174;19;20516;-87
2023/04/11 16:37:31;;;;;;;0.43;0.43;;;;;;;26.49;36.85;98045.94;7396840;19;20046;-87
2023/04/11 16:39:59;;;;;;;0.63;0.55;;;;;;;26.54;36.68;98024.81;7397896;19;20035;-84
2023/04/11 16:42:25;;;;;;;0.47;0.47;;;;;;;26.42;36.65;98009.91;7393598;19;20021;-86
2023/04/11 16:44:51;;;;;;;0.85;0.22;;;;;;;26.33;36.52;98016.53;7391190;19;20011;-85
2023/04/11 16:47:19;;;;;;;0.43;0.43;;;;;;;26.29;36.87;98008.47;7395145;19;20011;-90
2023/04/11 16:49:45;;;;;;;0.32;0.32;;;;;;;26.04;36.62;97990.59;7399307;19;20018;-90
2023/04/11 16:52:11;;;;;;;0.70;0.45;;;;;;;25.83;37.10;97979.41;7394386;19;20029;-89
2023/04/11 16:54:37;;;;;;;1.63;0.40;;;;;;;25.64;37.36;97971.19;7395087;19;20006;-88
2023/04/11 16:57:03;;;;;;;0.30;0.30;;;;;;;25.70;37.46;97960.13;7396694;19;20675;-88
2023/04/11 16:59:29;;;;;;;0.60;0.60;;;;;;;25.58;37.60;97953.72;7396062;19;20022;-89
2023/04/11 17:01:55;;;;;;;0.43;0.43;;;;;;;25.66;37.59;97943.53;7392106;19;20369;-90
2023/04/11 17:04:22;;;;;;;0.50;0.47;;;;;;;25.70;37.29;97923.78;7392213;19;20053;-89
2023/04/11 17:06:48;;;;;;;0.73;0.55;;;;;;;25.43;37.45;97913.00;7394640;19;20476;-93
2023/04/11 17:09:14;;;;;;;0.40;0.38;;;;;;;25.30;37.85;97913.63;7393378;19;20011;-85
2023/04/11 17:11:40;;;;;;;0.20;0.20;;;;;;;25.35;37.88;97884.00;7389465;19;20017;-85
2023/04/11 17:14:06;;;;;;;0.30;0.30;;;;;;;25.51;37.91;97879.25;7391284;19;20022;-84
2023/04/11 17:16:33;;;;;;;0.30;0.30;;;;;;;25.52;37.95;97860.78;7393654;19;20015;-85
2023/04/11 17:18:59;;;;;;;0.35;0.35;;;;;;;25.21;37.78;97854.69;7393260;19;20350;-85
2023/04/11 17:21:26;;;;;;;0.75;0.40;;;;;;;25.11;37.79;97839.88;7389022;19;20056;-85
2023/04/11 17:23:52;;;;;;;0.22;0.22;;;;;;;25.09;38.22;97825.50;7389720;19;20010;-85
2023/04/11 17:26:18;;;;;;;0.85;0.32;;;;;;;25.29;38.23;97820.97;7391907;19;20011;-85
2023/04/11 17:28:45;;;;;;;0.20;0.20;;;;;;;25.46;38.11;97803.44;7390231;19;20018;-84
2023/04/11 17:31:13;;;;;;;0.90;0.90;;;;;;;25.41;37.78;97796.00;7389636;19;20028;-84
2023/04/11 17:33:40;;;;;;;0.30;0.30;;;;;;;25.44;38.08;97786.22;7391433;19;20026;-85
2023/04/11 17:36:07;;;;;;;1.92;0.98;;;;;;;25.43;37.87;97767.63;7392741;19;20022;-83
2023/04/11 17:38:33;;;;;;;0.20;0.20;;;;;;;25.34;38.05;97768.53;7393462;19;20019;-84
2023/04/11 17:41:01;;;;;;;0.95;0.68;;;;;;;25.19;37.78;97757.69;7389749;19;20368;-83
2023/04/11 17:43:27;;;;;;;0.45;0.45;;;;;;;25.23;38.10;97742.97;7389624;19;20021;-83
2023/04/11 17:45:55;;;;;;;0.60;0.60;;;;;;;25.18;37.83;97716.34;7392781;19;20018;-84
2023/04/11 17:48:21;;;;;;;0.47;0.47;;;;;;;25.14;38.00;97710.44;7391322;19;20010;-81
2023/04/11 17:50:48;;;;;;;2.88;1.05;;;;;;;25.14;37.87;97687.66;7390363;19;20124;-84
2023/04/11 17:53:14;;;;;;;4.43;1.40;;;;;;;25.24;38.32;97693.88;7390915;19;20389;-83
2023/04/11 17:55:40;;;;;;;0.22;0.22;;;;;;;25.37;37.73;97667.53;7392373;19;20035;-85
2023/04/11 17:58:06;;;;;;;0.57;0.55;;;;;;;25.27;37.71;97657.69;7390895;19;20062;-81
2023/04/11 18:00:32;;;;;;;0.63;0.38;;;;;;;25.24;37.95;97665.41;7392931;19;20346;-82
2023/04/11 18:02:59;;;;;;;1.55;0.57;;;;;;;25.22;37.69;97653.88;7393443;19;20018;-83
2023/04/11 18:05:29;;;;;;;9.30;0.65;;;;;;;25.23;37.81;97631.84;7393683;19;20015;-82
2023/04/11 18:07:57;;;;;;;0.57;0.57;;;;;;;25.25;37.89;97615.56;7394149;19;20021;-82
2023/04/11 18:10:26;;;;;;;0.68;0.68;;;;;;;25.19;37.94;97601.00;7391366;19;20018;-83
2023/04/11 18:12:53;;;;;;;0.38;0.38;;;;;;;25.19;37.80;97606.69;7390938;19;20026;-83
2023/04/11 18:15:21;;;;;;;0.40;0.40;;;;;;;25.19;37.33;97578.22;7389883;19;20014;-83
2023/04/11 18:17:47;;;;;;;0.30;0.30;;;;;;;25.29;37.72;97558.81;7394807;19;20047;-83
2023/04/11 18:20:14;;;;;;;0.55;0.55;;;;;;;25.12;37.75;97530.81;7394503;19;20044;-83
2023/04/11 18:22:45;;;;;;;0.63;0.63;;;;;;;25.23;37.35;97524.28;7388248;19;20018;-84
2023/04/11 18:25:12;;;;;;;0.55;0.55;;;;;;;25.32;37.52;97497.69;7390683;19;20371;-83
2023/04/11 18:27:40;;;;;;;0.20;0.20;;;;;;;25.41;37.21;97493.16;7395574;19;20077;-83
2023/04/11 18:30:10;;;;;;;0.20;0.20;;;;;;;25.20;37.06;97477.13;7395279;19;20452;-84
2023/04/11 18:32:37;;;;;;;0.30;0.30;;;;;;;25.36;37.42;97465.84;7390711;19;20035;-83
2023/04/11 18:35:06;;;;;;;0.20;0.20;;;;;;;25.43;36.85;97456.97;7391690;19;20078;-83
2023/04/11 18:37:33;;;;;;;0.35;0.35;;;;;;;25.37;36.71;97456.63;7394687;19;20026;-82
2023/04/11 18:40:00;;;;;;;0.40;0.40;;;;;;;25.20;37.14;97453.59;7395836;19;20074;-83
2023/04/11 18:42:26;;;;;;;0.20;0.20;;;;;;;25.20;37.27;97442.94;7389280;19;20470;-82
2023/04/11 18:44:53;;;;;;;0.20;0.20;;;;;;;25.27;37.18;97436.19;7388461;19;20532;-82
2023/04/11 18:47:19;;;;;;;0.40;0.40;;;;;;;25.33;37.41;97416.56;7394302;19;20025;-82
2023/04/11 18:49:45;;;;;;;0.30;0.30;;;;;;;25.36;36.99;97403.16;7393909;19;20031;-83
2023/04/11 18:52:11;;;;;;;0.22;0.22;;;;;;;25.08;37.51;97425.22;7387676;19;20117;-83
2023/04/11 18:54:38;;;;;;;0.30;0.30;;;;;;;25.23;37.71;97401.78;7390758;19;20015;-86
2023/04/11 18:57:04;;;;;;;0.63;0.63;;;;;;;25.05;37.78;97400.88;7391692;19;20349;-84
2023/04/11 18:59:31;;;;;;;0.40;0.40;;;;;;;25.06;38.11;97376.72;7394184;19;20014;-83
2023/04/11 19:01:57;;;;;;;0.40;0.40;;;;;;;24.85;38.14;97382.75;7395703;19;20018;-82
2023/04/11 19:04:23;;;;;;;0.20;0.20;;;;;;;24.78;38.45;97386.66;7392822;19;20662;-83
2023/04/11 19:06:50;;;;;;;0.73;0.55;;;;;;;24.87;38.42;97373.56;7396531;19;20053;-84
2023/04/11 19:09:16;;;;;;;0.25;0.25;;;;;;;24.74;38.94;97386.41;7394636;19;20082;-87
2023/04/11 19:11:43;;;;;;;0.40;0.40;;;;;;;25.11;38.51;97378.38;7393888;19;20010;-85
2023/04/11 19:14:09;;;;;;;0.25;0.20;;;;;;;25.12;38.14;97371.31;7396999;19;20361;-85
2023/04/11 19:16:36;;;;;;;0.30;0.30;;;;;;;25.27;38.32;97372.78;7400419;19;20053;-86
2023/04/11 19:19:02;;;;;;;0.43;0.43;;;;;;;25.23;38.23;97378.97;7398796;19;20014;-86
2023/04/11 19:21:29;;;;;;;0.22;0.22;;;;;;;24.82;39.14;97378.31;7394794;19;20014;-85
2023/04/11 19:23:58;;;;;;;0.40;0.40;;;;;;;24.94;38.86;97363.97;7394337;19;20018;-85
2023/04/11 19:26:27;;;;;;;0.80;0.30;;;;;;;25.06;38.83;97348.22;7395312;19;20031;-86
2023/04/11 19:28:54;;;;;;;1.08;0.43;;;;;;;24.99;39.19;97359.97;7394600;19;20032;-87
2023/04/11 19:31:26;;;;;;;0.35;0.35;;;;;;;25.18;39.18;97371.63;7394386;19;20574;-86
2023/04/11 19:33:52;;;;;;;0.40;0.40;;;;;;;25.06;39.34;97368.16;7394840;19;20031;-85
2023/04/11 19:36:19;;;;;;;0.30;0.30;;;;;;;25.13;39.64;97363.50;7395724;19;20014;-83
2023/04/11 19:38:45;;;;;;;0.30;0.30;;;;;;;25.26;39.54;97359.88;7396977;19;20010;-87
2023/04/11 19:41:15;;;;;;;1.02;0.38;;;;;;;25.25;39.71;97359.13;7395680;19;20480;-82
2023/04/11 19:43:43;;;;;;;7.22;0.70;;;;;;;25.39;39.60;97368.41;7392770;19;20078;-84
2023/04/11 19:46:11;;;;;;;0.30;0.20;;;;;;;26.50;38.43;97367.94;7393223;19;20011;-83
2023/04/11 19:48:42;;;;;;;0.40;0.40;;;;;;;25.47;39.60;97373.78;7394086;19;20143;-83
2023/04/11 19:51:09;;;;;;;0.32;0.32;;;;;;;25.58;39.87;97381.44;7392216;19;20019;-84
2023/04/11 19:53:40;;;;;;;1.55;0.50;;;;;;;25.60;39.57;97375.84;7395282;19;20089;-85
2023/04/11 19:56:08;;;;;;;1.25;0.35;;;;;;;25.45;40.24;97354.47;7395983;19;20022;-83
2023/04/11 19:58:35;;;;;;;0.45;0.45;;;;;;;25.51;40.39;97388.97;7394512;19;20011;-84
2023/04/11 20:01:02;;;;;;;0.85;0.30;;;;;;;25.66;40.25;97350.50;7393155;19;20038;-84
2023/04/11 20:03:29;;;;;;;0.20;0.20;;;;;;;26.00;40.02;97371.31;7391564;19;20483;-83
2023/04/11 20:05:55;;;;;;;1.55;0.60;;;;;;;26.08;39.42;97354.56;7395373;19;20034;-84
2023/04/11 20:08:21;;;;;;;0.30;0.30;;;;;;;26.06;39.63;97345.91;7396458;19;20543;-85
2023/04/11 20:10:48;;;;;;;1.95;1.00;;;;;;;26.02;39.38;97351.44;7392243;19;20018;-85
2023/04/11 20:13:18;;;;;;;0.30;0.30;;;;;;;26.11;39.69;97361.88;7393891;19;20365;-83
2023/04/11 20:15:44;;;;;;;0.60;0.60;;;;;;;26.13;39.46;97351.31;7396673;19;20042;-85
2023/04/11 20:18:10;;;;;;;0.28;0.28;;;;;;;26.18;39.40;97358.66;7395063;19;20019;-84
2023/04/11 20:20:37;;;;;;;1.77;0.28;;;;;;;26.25;39.44;97346.13;7397200;19;20022;-91
2023/04/11 20:23:05;;;;;;;0.10;0.10;;;;;;;26.17;39.17;97345.03;7393709;19;20578;-85
2023/04/11 20:25:32;;;;;;;0.50;0.50;;;;;;;26.18;39.33;97364.34;7393825;19;20019;-87
2023/04/11 20:27:59;;;;;;;0.30;0.30;;;;;;;26.29;39.36;97365.56;7418399;19;20022;-84
2023/04/11 20:30:27;;;;;;;0.20;0.20;;;;;;;26.23;39.29;97359.56;7412927;19;20006;-85
2023/04/11 20:32:53;;;;;;;1.20;0.50;;;;;;;26.03;39.29;97365.06;7396078;19;20011;-85
2023/04/11 20:35:20;;;;;;;0.13;0.13;;;;;;;25.94;39.07;97363.22;7394773;19;20046;-85
2023/04/11 20:37:48;;;;;;;0.77;0.73;;;;;;;25.54;38.87;97370.59;7394541;19;20349;-85
2023/04/11 20:40:15;;;;;;;0.20;0.20;;;;;;;25.65;38.40;97376.75;7397648;19;20021;-83
2023/04/11 20:42:46;;;;;;;0.63;0.38;;;;;;;25.68;38.51;97375.50;7390789;19;20011;-84
2023/04/11 20:45:19;;;;;;;0.65;0.63;;;;;;;25.63;38.35;97373.81;7394088;19;20018;-85
2023/04/11 20:47:46;;;;;;;0.30;0.30;;;;;;;25.58;38.09;97353.69;7393886;19;20006;-85
2023/04/11 20:50:14;;;;;;;0.80;0.80;;;;;;;25.50;38.18;97378.94;7397868;19;20022;-85
2023/04/11 20:52:42;;;;;;;0.30;0.30;;;;;;;25.51;38.29;97380.41;7393300;19;20484;-84